Time;durP1;ratioP1;P1;durP2;ratioP2;P2;SDS_P1;SDS_P2;PMS_P1;PMS_P2;Temp;Humidity;BMP_temperature;BMP_pressure;BME280_temperature;BME280_humidity;BME280_pressure;Samples;Min_cycle;Max_cycle;Signal;HPM_P1;HPM_P2
2023/04/16 00:00:03;;;;;;;8.43;4.68;;;;;;;;;;7386675;19;19994;-75
2023/04/16 00:02:29;;;;;;;8.77;4.75;;;;;;;;;;7383693;19;20417;-76
2023/04/16 00:04:54;;;;;;;10.70;5.15;;;;;;;;;;7384713;19;19994;-75
2023/04/16 00:07:20;;;;;;;9.05;4.80;;;;;;;;;;7393095;19;20002;-76
2023/04/16 00:09:45;;;;;;;9.55;4.93;;;;;;;;;;7395566;19;19994;-76
2023/04/16 00:12:11;;;;;;;9.82;5.65;;;;;;;;;;7395054;19;20002;-76
2023/04/16 00:14:36;;;;;;;7.55;4.43;;;;;;;;;;7392956;19;20002;-76
2023/04/16 00:17:02;;;;;;;9.63;4.70;;;;;;;;;;7394177;19;20058;-76
2023/04/16 00:19:27;;;;;;;9.18;5.80;;;;;;;;;;7393450;19;20507;-76
2023/04/16 00:21:52;;;;;;;9.70;5.22;;;;;;;;;;7393286;19;20366;-76
2023/04/16 00:24:18;;;;;;;9.75;5.05;;;;;;;;;;7391641;19;20010;-76
2023/04/16 00:26:45;;;;;;;9.40;5.25;;;;;;;;;;7394248;19;20002;-77
2023/04/16 00:29:10;;;;;;;9.45;5.20;;;;;;;;;;7397211;19;20006;-76
2023/04/16 00:31:36;;;;;;;11.07;5.82;;;;;;;;;;7392879;19;19994;-76
2023/04/16 00:34:02;;;;;;;9.52;5.65;;;;;;;;;;7396015;19;20341;-77
2023/04/16 00:36:27;;;;;;;8.88;5.65;;;;;;;;;;7389406;19;19998;-76
2023/04/16 00:38:54;;;;;;;8.85;4.78;;;;;;;;;;7393716;19;20367;-76
2023/04/16 00:41:20;;;;;;;10.35;5.38;;;;;;;;;;7390701;19;20002;-76
2023/04/16 00:43:45;;;;;;;10.77;6.10;;;;;;;;;;7392218;19;19998;-76
2023/04/16 00:46:11;;;;;;;9.27;4.68;;;;;;;;;;7388747;19;20409;-77
2023/04/16 00:48:38;;;;;;;11.63;5.68;;;;;;;;;;7390941;19;20226;-76
2023/04/16 00:51:04;;;;;;;10.25;6.00;;;;;;;;;;7389800;19;19999;-76
2023/04/16 00:53:30;;;;;;;8.93;4.93;;;;;;;;;;7389000;19;19998;-76
2023/04/16 00:55:56;;;;;;;10.57;5.78;;;;;;;;;;7388654;19;19991;-77
2023/04/16 00:58:22;;;;;;;10.43;5.53;;;;;;;;;;7390882;19;20062;-76
2023/04/16 01:00:47;;;;;;;13.77;6.55;;;;;;;;;;7389414;19;20023;-77
2023/04/16 01:03:12;;;;;;;10.80;5.68;;;;;;;;;;7389460;19;20015;-77
2023/04/16 01:05:38;;;;;;;8.55;5.60;;;;;;;;;;7386791;19;20002;-77
2023/04/16 01:08:03;;;;;;;11.57;5.78;;;;;;;;;;7388500;19;19998;-76
2023/04/16 01:10:29;;;;;;;11.93;6.00;;;;;;;;;;7388466;19;20002;-77
2023/04/16 01:12:55;;;;;;;10.63;5.53;;;;;;;;;;7389426;19;20006;-77
2023/04/16 01:15:20;;;;;;;10.52;5.68;;;;;;;;;;7389588;19;19999;-77
2023/04/16 01:17:45;;;;;;;10.43;6.15;;;;;;;;;;7387142;19;20090;-77
2023/04/16 01:20:11;;;;;;;11.50;5.82;;;;;;;;;;7390276;19;20022;-77
2023/04/16 01:22:36;;;;;;;11.90;5.18;;;;;;;;;;7389936;19;20002;-76
2023/04/16 01:25:02;;;;;;;10.52;6.25;;;;;;;;;;7388689;19;19998;-76
2023/04/16 01:27:27;;;;;;;8.52;4.63;;;;;;;;;;7390100;19;19991;-77
2023/04/16 01:29:52;;;;;;;11.07;5.78;;;;;;;;;;7389844;19;20349;-77
2023/04/16 01:32:18;;;;;;;12.73;6.95;;;;;;;;;;7395123;19;19990;-78
2023/04/16 01:34:43;;;;;;;9.02;5.38;;;;;;;;;;7386826;19;20024;-76
2023/04/16 01:37:10;;;;;;;13.38;7.13;;;;;;;;;;7389492;19;20002;-77
2023/04/16 01:39:35;;;;;;;11.18;6.05;;;;;;;;;;7388784;19;19995;-77
2023/04/16 01:42:01;;;;;;;11.30;5.93;;;;;;;;;;7391828;19;20005;-76
2023/04/16 01:44:26;;;;;;;15.45;6.88;;;;;;;;;;7385700;19;20426;-76
2023/04/16 01:46:52;;;;;;;9.55;5.68;;;;;;;;;;7388846;19;20006;-76
2023/04/16 01:49:17;;;;;;;10.70;6.28;;;;;;;;;;7389501;19;19991;-76
2023/04/16 01:51:42;;;;;;;12.05;5.95;;;;;;;;;;7387766;19;20013;-76
2023/04/16 01:54:08;;;;;;;12.68;6.90;;;;;;;;;;7388031;19;20480;-76
2023/04/16 01:56:33;;;;;;;11.85;6.57;;;;;;;;;;7386377;19;20026;-76
2023/04/16 01:58:59;;;;;;;15.05;7.13;;;;;;;;;;7388297;19;20002;-76
2023/04/16 02:01:24;;;;;;;11.98;6.20;;;;;;;;;;7385172;19;19998;-76
2023/04/16 02:03:50;;;;;;;11.55;6.57;;;;;;;;;;7387841;19;20074;-76
2023/04/16 02:06:15;;;;;;;10.55;6.57;;;;;;;;;;7385929;19;20010;-75
2023/04/16 02:08:41;;;;;;;12.38;6.32;;;;;;;;;;7387733;19;20379;-76
2023/04/16 02:11:06;;;;;;;12.32;6.40;;;;;;;;;;7386999;19;20364;-77
2023/04/16 02:13:32;;;;;;;12.13;6.53;;;;;;;;;;7387917;19;19991;-77
2023/04/16 02:15:57;;;;;;;10.85;6.50;;;;;;;;;;7387106;19;20006;-77
2023/04/16 02:18:22;;;;;;;10.43;5.95;;;;;;;;;;7388200;19;20026;-77
2023/04/16 02:20:50;;;;;;;15.60;7.22;;;;;;;;;;7387592;19;20005;-77
2023/04/16 02:23:16;;;;;;;12.32;6.38;;;;;;;;;;7387472;19;19999;-77
2023/04/16 02:25:42;;;;;;;13.82;6.63;;;;;;;;;;7386546;19;20002;-76
2023/04/16 02:28:08;;;;;;;9.73;5.05;;;;;;;;;;7387001;19;20002;-76
2023/04/16 02:30:38;;;;;;;14.18;6.80;;;;;;;;;;7385883;19;19991;-77
2023/04/16 02:33:06;;;;;;;11.32;7.05;;;;;;;;;;7390282;19;20089;-78
2023/04/16 02:35:34;;;;;;;12.10;6.65;;;;;;;;;;7390942;19;20006;-77
2023/04/16 02:38:00;;;;;;;12.02;6.20;;;;;;;;;;7388176;19;19995;-77
2023/04/16 02:40:26;;;;;;;13.45;6.53;;;;;;;;;;7386622;19;19995;-77
2023/04/16 02:42:52;;;;;;;13.32;6.38;;;;;;;;;;7387887;19;19999;-77
2023/04/16 02:45:19;;;;;;;10.80;6.82;;;;;;;;;;7386519;19;20452;-77
2023/04/16 02:47:44;;;;;;;9.77;6.05;;;;;;;;;;7387027;19;20016;-76
2023/04/16 02:50:10;;;;;;;10.95;6.00;;;;;;;;;;7385687;19;20006;-77
2023/04/16 02:52:35;;;;;;;12.50;6.53;;;;;;;;;;7387059;19;20010;-76
2023/04/16 02:55:01;;;;;;;11.00;6.18;;;;;;;;;;7385830;19;20009;-76
2023/04/16 02:57:26;;;;;;;13.57;7.28;;;;;;;;;;7387689;19;20582;-76
2023/04/16 02:59:51;;;;;;;14.70;7.35;;;;;;;;;;7389699;19;19995;-77
2023/04/16 03:02:16;;;;;;;11.48;6.45;;;;;;;;;;7385238;19;20483;-76
2023/04/16 03:04:42;;;;;;;11.82;6.25;;;;;;;;;;7385375;19;20018;-77
2023/04/16 03:07:08;;;;;;;15.10;6.85;;;;;;;;;;7392631;19;20017;-76
2023/04/16 03:09:34;;;;;;;12.55;6.90;;;;;;;;;;7393557;19;20329;-77
2023/04/16 03:12:01;;;;;;;11.80;6.20;;;;;;;;;;7384704;19;19999;-76
2023/04/16 03:14:26;;;;;;;11.77;6.32;;;;;;;;;;7385544;19;20038;-76
2023/04/16 03:16:51;;;;;;;9.38;5.40;;;;;;;;;;7385443;19;20010;-76
2023/04/16 03:19:17;;;;;;;13.23;6.80;;;;;;;;;;7383845;19;20005;-76
2023/04/16 03:21:42;;;;;;;9.38;5.75;;;;;;;;;;7384058;19;19995;-76
2023/04/16 03:24:07;;;;;;;13.77;6.68;;;;;;;;;;7383409;19;20066;-76
2023/04/16 03:26:33;;;;;;;11.18;6.45;;;;;;;;;;7383878;19;20484;-74
2023/04/16 03:28:58;;;;;;;10.00;6.03;;;;;;;;;;7385827;19;20018;-76
2023/04/16 03:31:24;;;;;;;12.27;6.30;;;;;;;;;;7384046;19;20119;-77
2023/04/16 03:33:50;;;;;;;16.55;6.32;;;;;;;;;;7385320;19;20026;-76
2023/04/16 03:36:15;;;;;;;11.73;6.25;;;;;;;;;;7383435;19;20604;-75
2023/04/16 03:38:41;;;;;;;10.27;6.00;;;;;;;;;;7385055;19;20005;-75
2023/04/16 03:41:06;;;;;;;10.45;6.28;;;;;;;;;;7388578;19;19998;-76
2023/04/16 03:43:32;;;;;;;11.13;5.68;;;;;;;;;;7392931;19;19991;-76
2023/04/16 03:45:57;;;;;;;12.82;6.97;;;;;;;;;;7390591;19;20054;-76
2023/04/16 03:48:23;;;;;;;10.52;6.03;;;;;;;;;;7390812;19;20015;-76
2023/04/16 03:50:48;;;;;;;12.23;5.68;;;;;;;;;;7390993;19;19998;-76
2023/04/16 03:53:13;;;;;;;11.80;6.28;;;;;;;;;;7392236;19;20002;-75
2023/04/16 03:55:40;;;;;;;12.48;6.18;;;;;;;;;;7386165;19;20002;-75
2023/04/16 03:58:05;;;;;;;8.07;4.97;;;;;;;;;;7396369;19;20121;-75
2023/04/16 04:00:31;;;;;;;10.68;6.25;;;;;;;;;;7394091;19;20011;-75
2023/04/16 04:02:56;;;;;;;11.77;6.40;;;;;;;;;;7396154;19;20001;-77
2023/04/16 04:05:21;;;;;;;12.25;6.85;;;;;;;;;;7390906;19;20062;-76
2023/04/16 04:07:47;;;;;;;11.75;5.78;;;;;;;;;;7392450;19;20074;-77
2023/04/16 04:10:12;;;;;;;8.95;5.50;;;;;;;;;;7391370;19;19998;-76
2023/04/16 04:12:37;;;;;;;11.02;6.53;;;;;;;;;;7391744;19;20011;-77
2023/04/16 04:15:03;;;;;;;13.25;6.40;;;;;;;;;;7388694;19;20003;-76
2023/04/16 04:17:28;;;;;;;14.70;7.57;;;;;;;;;;7392009;19;19999;-76
2023/04/16 04:19:54;;;;;;;11.70;6.25;;;;;;;;;;7391647;19;20006;-76
2023/04/16 04:22:19;;;;;;;12.25;7.10;;;;;;;;;;7391065;19;20405;-76
2023/04/16 04:24:44;;;;;;;12.52;6.70;;;;;;;;;;7390037;19;20006;-77
2023/04/16 04:27:10;;;;;;;11.25;6.63;;;;;;;;;;7393853;19;20062;-76
2023/04/16 04:29:35;;;;;;;12.20;6.43;;;;;;;;;;7394045;19;20502;-76
2023/04/16 04:32:00;;;;;;;13.82;7.18;;;;;;;;;;7388332;19;20003;-76
2023/04/16 04:34:26;;;;;;;12.55;6.43;;;;;;;;;;7390878;19;20002;-76
2023/04/16 04:36:51;;;;;;;12.52;6.45;;;;;;;;;;7390050;19;20097;-75
2023/04/16 04:39:16;;;;;;;10.98;6.65;;;;;;;;;;7392635;19;19998;-77
2023/04/16 04:41:42;;;;;;;11.68;5.75;;;;;;;;;;7391026;19;20361;-76
2023/04/16 04:44:07;;;;;;;12.02;6.10;;;;;;;;;;7391876;19;20495;-76
2023/04/16 04:46:32;;;;;;;11.70;6.43;;;;;;;;;;7397317;19;20483;-76
2023/04/16 04:48:58;;;;;;;11.73;6.43;;;;;;;;;;7391770;19;20456;-76
2023/04/16 04:51:23;;;;;;;11.85;6.97;;;;;;;;;;7388635;19;20006;-76
2023/04/16 04:53:48;;;;;;;11.95;6.40;;;;;;;;;;7391086;19;20981;-76
2023/04/16 04:56:13;;;;;;;13.75;6.72;;;;;;;;;;7388866;19;20006;-76
2023/04/16 04:58:40;;;;;;;13.38;6.63;;;;;;;;;;7391301;19;19998;-76
2023/04/16 05:01:05;;;;;;;11.38;6.68;;;;;;;;;;7390752;19;20004;-76
2023/04/16 05:03:30;;;;;;;11.43;6.18;;;;;;;;;;7390945;19;20007;-76
2023/04/16 05:05:56;;;;;;;13.07;6.82;;;;;;;;;;7386867;19;20014;-76
2023/04/16 05:08:21;;;;;;;12.30;6.97;;;;;;;;;;7388664;19;20003;-76
2023/04/16 05:10:46;;;;;;;12.25;6.97;;;;;;;;;;7389072;19;20006;-76
2023/04/16 05:13:11;;;;;;;12.05;6.75;;;;;;;;;;7390722;19;19999;-75
2023/04/16 05:15:37;;;;;;;13.10;6.90;;;;;;;;;;7388982;19;20019;-75
2023/04/16 05:18:02;;;;;;;12.73;6.70;;;;;;;;;;7390668;19;20003;-75
2023/04/16 05:20:28;;;;;;;13.77;7.20;;;;;;;;;;7389310;19;20045;-75
2023/04/16 05:22:54;;;;;;;12.07;5.70;;;;;;;;;;7390104;19;20098;-75
2023/04/16 05:25:19;;;;;;;14.75;7.65;;;;;;;;;;7388639;19;20074;-75
2023/04/16 05:27:45;;;;;;;12.75;6.53;;;;;;;;;;7390016;19;20002;-76
2023/04/16 05:30:10;;;;;;;12.68;7.38;;;;;;;;;;7389776;19;19999;-76
2023/04/16 05:32:38;;;;;;;13.73;6.43;;;;;;;;;;7389409;19;19999;-75
2023/04/16 05:35:04;;;;;;;12.27;6.72;;;;;;;;;;7383752;19;20135;-75
2023/04/16 05:37:29;;;;;;;15.52;7.30;;;;;;;;;;7389461;19;20399;-75
2023/04/16 05:39:54;;;;;;;13.63;6.72;;;;;;;;;;7389512;19;20468;-75
2023/04/16 05:42:20;;;;;;;14.45;8.02;;;;;;;;;;7388016;19;20020;-76
2023/04/16 05:44:45;;;;;;;13.68;7.43;;;;;;;;;;7388040;19;20006;-76
2023/04/16 05:47:11;;;;;;;17.10;7.35;;;;;;;;;;7389398;19;19999;-76
2023/04/16 05:49:36;;;;;;;15.23;7.80;;;;;;;;;;7391422;19;20029;-76
2023/04/16 05:52:03;;;;;;;15.95;7.70;;;;;;;;;;7387699;19;20038;-77
2023/04/16 05:54:28;;;;;;;13.95;6.97;;;;;;;;;;7387058;19;20108;-76
2023/04/16 05:56:53;;;;;;;14.30;7.30;;;;;;;;;;7389058;19;19995;-75
2023/04/16 05:59:19;;;;;;;14.05;7.88;;;;;;;;;;7389094;19;20012;-75
2023/04/16 06:02:03;;;;;;;13.38;8.45;;;;;;;;;;7388819;19;19999;-78
2023/04/16 06:04:29;;;;;;;14.05;7.85;;;;;;;;;;7385797;19;20393;-75
2023/04/16 06:06:55;;;;;;;16.25;8.65;;;;;;;;;;7388074;19;20511;-76
2023/04/16 06:09:20;;;;;;;17.95;8.35;;;;;;;;;;7393246;19;20002;-76
2023/04/16 06:11:46;;;;;;;16.55;8.73;;;;;;;;;;7389545;19;19994;-76
2023/04/16 06:14:11;;;;;;;14.32;7.50;;;;;;;;;;7392707;19;19998;-76
2023/04/16 06:16:36;;;;;;;14.80;7.93;;;;;;;;;;7386979;19;20031;-76
2023/04/16 06:19:02;;;;;;;16.92;8.73;;;;;;;;;;7389236;19;20336;-76
2023/04/16 06:21:27;;;;;;;17.55;8.25;;;;;;;;;;7390102;19;20017;-76
2023/04/16 06:23:54;;;;;;;15.30;7.78;;;;;;;;;;7400107;19;20111;-77
2023/04/16 06:26:20;;;;;;;13.68;7.88;;;;;;;;;;7391421;19;20002;-75
2023/04/16 06:28:45;;;;;;;15.68;8.15;;;;;;;;;;7392982;19;20017;-74
2023/04/16 06:31:10;;;;;;;14.60;8.27;;;;;;;;;;7388558;19;20659;-75
2023/04/16 06:33:36;;;;;;;15.68;8.60;;;;;;;;;;7387301;19;20015;-74
2023/04/16 06:36:01;;;;;;;14.73;7.75;;;;;;;;;;7390581;19;20021;-76
2023/04/16 06:38:26;;;;;;;15.43;7.90;;;;;;;;;;7391331;19;20583;-76
2023/04/16 06:40:52;;;;;;;15.88;8.27;;;;;;;;;;7388743;19;20519;-76
2023/04/16 06:43:17;;;;;;;15.55;8.27;;;;;;;;;;7389113;19;20032;-75
2023/04/16 06:45:42;;;;;;;15.07;8.00;;;;;;;;;;7389165;19;20058;-75
2023/04/16 06:48:08;;;;;;;16.88;7.93;;;;;;;;;;7392143;19;20002;-75
2023/04/16 06:50:33;;;;;;;14.90;8.02;;;;;;;;;;7391440;19;20007;-76
2023/04/16 06:52:59;;;;;;;15.35;8.35;;;;;;;;;;7393167;19;20058;-74
2023/04/16 06:55:24;;;;;;;18.13;8.65;;;;;;;;;;7386462;19;20002;-73
2023/04/16 06:57:49;;;;;;;17.40;8.48;;;;;;;;;;7387571;19;20007;-73
2023/04/16 07:00:15;;;;;;;14.70;8.43;;;;;;;;;;7385192;19;20042;-72
2023/04/16 07:02:40;;;;;;;14.20;8.02;;;;;;;;;;7384134;19;20025;-70
2023/04/16 07:05:06;;;;;;;16.42;9.05;;;;;;;;;;7381480;19;19999;-74
2023/04/16 07:07:31;;;;;;;17.25;9.02;;;;;;;;;;7383006;19;19999;-71
2023/04/16 07:09:58;;;;;;;14.00;8.10;;;;;;;;;;7385453;19;20496;-72
2023/04/16 07:12:23;;;;;;;12.93;6.50;;;;;;;;;;7383556;19;20478;-72
2023/04/16 07:14:48;;;;;;;13.10;7.50;;;;;;;;;;7383685;19;20002;-73
2023/04/16 07:17:14;;;;;;;17.80;7.70;;;;;;;;;;7386824;19;20018;-73
2023/04/16 07:19:39;;;;;;;15.70;8.68;;;;;;;;;;7388746;19;20495;-76
2023/04/16 07:22:04;;;;;;;17.33;8.35;;;;;;;;;;7388641;19;19999;-74
2023/04/16 07:24:30;;;;;;;16.60;8.68;;;;;;;;;;7388187;19;20019;-73
2023/04/16 07:26:55;;;;;;;24.85;12.10;;;;;;;;;;7390011;19;20346;-73
2023/04/16 07:29:20;;;;;;;14.32;7.53;;;;;;;;;;7390228;19;20018;-70
2023/04/16 07:31:46;;;;;;;13.45;7.32;;;;;;;;;;7389070;19;20015;-71
2023/04/16 07:34:11;;;;;;;13.30;6.97;;;;;;;;;;7385565;19;19999;-71
2023/04/16 07:36:37;;;;;;;15.15;7.45;;;;;;;;;;7385039;19;20467;-70
2023/04/16 07:39:03;;;;;;;13.50;7.35;;;;;;;;;;7387240;19;20018;-71
2023/04/16 07:41:29;;;;;;;12.55;6.75;;;;;;;;;;7389017;19;19994;-73
2023/04/16 07:43:54;;;;;;;11.63;6.55;;;;;;;;;;7386563;19;20012;-73
2023/04/16 07:46:20;;;;;;;10.88;5.93;;;;;;;;;;7386876;19;20006;-71
2023/04/16 07:48:46;;;;;;;13.60;6.60;;;;;;;;;;7385565;19;19991;-71
2023/04/16 07:51:11;;;;;;;11.98;5.97;;;;;;;;;;7386912;19;20018;-72
2023/04/16 07:53:37;;;;;;;11.98;5.88;;;;;;;;;;7385745;19;20468;-72
2023/04/16 07:56:02;;;;;;;10.15;5.90;;;;;;;;;;7387576;19;20005;-72
2023/04/16 07:58:27;;;;;;;10.88;6.22;;;;;;;;;;7387097;19;20058;-72
2023/04/16 08:00:53;;;;;;;14.75;6.88;;;;;;;;;;7388355;19;20459;-71
2023/04/16 08:03:18;;;;;;;12.63;6.28;;;;;;;;;;7391675;19;19998;-73
2023/04/16 08:05:44;;;;;;;11.02;5.93;;;;;;;;;;7384386;19;20472;-72
2023/04/16 08:08:09;;;;;;;10.85;5.60;;;;;;;;;;7383548;19;19998;-71
2023/04/16 08:10:34;;;;;;;10.90;5.95;;;;;;;;;;7383531;19;19995;-71
2023/04/16 08:13:00;;;;;;;11.15;6.25;;;;;;;;;;7385284;19;19991;-71
2023/04/16 08:15:26;;;;;;;11.07;6.20;;;;;;;;;;7372811;19;20148;-75
2023/04/16 08:17:51;;;;;;;12.52;5.75;;;;;;;;;;7382011;19;20010;-73
2023/04/16 08:20:17;;;;;;;11.35;5.95;;;;;;;;;;7381087;19;20006;-74
2023/04/16 08:22:43;;;;;;;12.68;6.72;;;;;;;;;;7382537;19;20026;-75
2023/04/16 08:25:09;;;;;;;14.43;7.20;;;;;;;;;;7382092;19;20547;-73
2023/04/16 08:27:34;;;;;;;10.02;5.63;;;;;;;;;;7385382;19;20022;-74
2023/04/16 08:29:59;;;;;;;13.43;6.15;;;;;;;;;;7387636;19;20033;-76
2023/04/16 08:32:25;;;;;;;11.73;6.05;;;;;;;;;;7389659;19;19995;-75
2023/04/16 08:34:51;;;;;;;12.32;6.35;;;;;;;;;;7389032;19;20002;-74
2023/04/16 08:37:16;;;;;;;13.93;6.90;;;;;;;;;;7391020;19;20035;-74
2023/04/16 08:39:41;;;;;;;14.50;7.53;;;;;;;;;;7390953;19;19999;-75
2023/04/16 08:42:17;;;;;;;12.70;7.28;;;;;;;;;;7388131;19;20007;-74
2023/04/16 08:44:47;;;;;;;16.55;8.23;;;;;;;;;;7386384;19;20023;-75
2023/04/16 08:47:14;;;;;;;13.75;7.47;;;;;;;;;;7389195;19;20003;-77
2023/04/16 08:49:47;;;;;;;12.50;7.03;;;;;;;;;;7391253;19;20456;-70
2023/04/16 08:52:17;;;;;;;13.43;8.20;;;;;;;;;;7387005;19;20106;-72
2023/04/16 08:55:02;;;;;;;14.85;7.57;;;;;;;;;;7390647;19;20006;-71
2023/04/16 08:57:35;;;;;;;14.25;7.07;;;;;;;;;;7390176;19;20438;-71
2023/04/16 09:00:01;;;;;;;18.55;8.50;;;;;;;;;;7389523;19;20006;-71
2023/04/16 09:02:27;;;;;;;13.35;7.88;;;;;;;;;;7387893;19;20305;-73
2023/04/16 09:04:52;;;;;;;16.63;9.32;;;;;;;;;;7388238;19;20023;-73
2023/04/16 09:07:19;;;;;;;18.38;9.20;;;;;;;;;;7389972;19;20491;-72
2023/04/16 09:09:47;;;;;;;16.15;9.82;;;;;;;;;;7391669;19;20002;-73
2023/04/16 09:12:13;;;;;;;15.45;9.18;;;;;;;;;;7387609;19;20011;-73
2023/04/16 09:14:40;;;;;;;14.35;7.65;;;;;;;;;;7388696;19;20009;-73
2023/04/16 09:17:06;;;;;;;17.42;9.70;;;;;;;;;;7390148;19;20006;-73
2023/04/16 09:19:31;;;;;;;16.17;9.00;;;;;;;;;;7391735;19;20492;-72
2023/04/16 09:21:57;;;;;;;16.95;9.02;;;;;;;;;;7386936;19;20034;-72
2023/04/16 09:24:23;;;;;;;18.05;9.48;;;;;;;;;;7388426;19;20010;-73
2023/04/16 09:26:51;;;;;;;17.10;9.32;;;;;;;;;;7390524;19;20009;-73
2023/04/16 09:29:40;;;;;;;19.10;10.75;;;;;;;;;;7389000;19;20034;-72
2023/04/16 09:32:08;;;;;;;21.60;9.95;;;;;;;;;;7385546;19;20463;-74
2023/04/16 09:34:34;;;;;;;19.40;10.32;;;;;;;;;;7385219;19;20027;-73
2023/04/16 09:37:16;;;;;;;18.17;9.40;;;;;;;;;;7387548;19;20372;-72
2023/04/16 09:39:43;;;;;;;17.35;10.07;;;;;;;;;;7388275;19;20021;-71
2023/04/16 09:42:09;;;;;;;20.95;10.38;;;;;;;;;;7385587;19;20369;-72
2023/04/16 09:44:38;;;;;;;13.80;8.30;;;;;;;;;;7393263;19;20022;-72
2023/04/16 09:47:08;;;;;;;19.52;10.30;;;;;;;;;;7387044;19;20015;-72
2023/04/16 09:49:35;;;;;;;19.90;9.55;;;;;;;;;;7390939;19;20007;-72
2023/04/16 09:52:01;;;;;;;18.30;9.90;;;;;;;;;;7391722;19;20030;-72
2023/04/16 09:54:26;;;;;;;16.17;9.50;;;;;;;;;;7385664;19;20007;-73
2023/04/16 09:56:55;;;;;;;17.45;9.60;;;;;;;;;;7389550;19;20027;-73
2023/04/16 09:59:22;;;;;;;15.80;9.23;;;;;;;;;;7392251;19;20011;-72
2023/04/16 10:01:52;;;;;;;15.18;9.27;;;;;;;;;;7386109;19;20384;-72
2023/04/16 10:04:18;;;;;;;15.18;9.25;;;;;;;;;;7390976;19;20041;-72
2023/04/16 10:06:47;;;;;;;16.15;9.88;;;;;;;;;;7390226;19;19994;-72
2023/04/16 10:09:12;;;;;;;16.80;10.02;;;;;;;;;;7384249;19;20002;-74
2023/04/16 10:11:38;;;;;;;17.60;10.07;;;;;;;;;;7389178;19;20023;-75
2023/04/16 10:14:03;;;;;;;17.27;9.05;;;;;;;;;;7388103;19;20018;-74
2023/04/16 10:16:29;;;;;;;17.35;10.18;;;;;;;;;;7380935;19;20470;-74
2023/04/16 10:18:55;;;;;;;17.88;8.48;;;;;;;;;;7383352;19;20027;-75
2023/04/16 10:21:21;;;;;;;19.02;9.90;;;;;;;;;;7384992;19;20003;-74
2023/04/16 10:23:48;;;;;;;20.40;9.40;;;;;;;;;;7388096;19;20456;-74
2023/04/16 10:26:14;;;;;;;19.45;10.45;;;;;;;;;;7386008;19;19998;-70
2023/04/16 10:28:39;;;;;;;14.80;8.25;;;;;;;;;;7389487;19;20006;-74
2023/04/16 10:31:07;;;;;;;21.05;10.75;;;;;;;;;;7389687;19;20002;-76
2023/04/16 10:33:35;;;;;;;22.70;10.48;;;;;;;;;;7387949;19;20014;-71
2023/04/16 10:36:22;;;;;;;19.35;11.02;;;;;;;;;;7376731;19;20031;-74
2023/04/16 10:38:52;;;;;;;19.83;10.27;;;;;;;;;;7386614;19;20494;-73
2023/04/16 10:41:19;;;;;;;17.48;9.48;;;;;;;;;;7382011;19;20002;-75
2023/04/16 10:43:49;;;;;;;16.95;10.10;;;;;;;;;;7385963;19;20007;-76
2023/04/16 10:46:37;;;;;;;16.52;8.48;;;;;;;;;;7380558;19;20101;-76
2023/04/16 10:49:24;;;;;;;16.85;9.57;;;;;;;;;;7381814;19;20002;-75
2023/04/16 10:51:59;;;;;;;17.52;9.73;;;;;;;;;;7381894;19;20731;-73
2023/04/16 10:54:33;;;;;;;18.95;10.10;;;;;;;;;;7390416;19;20078;-79
2023/04/16 10:57:03;;;;;;;18.05;10.07;;;;;;;;;;7386778;19;20026;-76
2023/04/16 10:59:40;;;;;;;16.13;8.98;;;;;;;;;;7388600;19;20007;-76
2023/04/16 11:02:09;;;;;;;20.02;9.82;;;;;;;;;;7388559;19;20046;-78
2023/04/16 11:04:37;;;;;;;19.90;9.35;;;;;;;;;;7398251;19;20011;-77
2023/04/16 11:07:15;;;;;;;18.05;10.23;;;;;;;;;;7385687;19;20012;-79
2023/04/16 11:09:56;;;;;;;17.05;9.82;;;;;;;;;;7390934;19;19998;-78
2023/04/16 11:12:26;;;;;;;;;;;;;;;;;;7387332;19;20069;-77
2023/04/16 11:14:54;;;;;;;21.58;10.82;;;;;;;;;;7384399;19;19923;-76
2023/04/16 11:17:20;;;;;;;17.42;9.35;;;;;;;;;;7387433;19;20469;-77
2023/04/16 11:19:46;;;;;;;21.52;10.95;;;;;;;;;;7390951;19;20010;-76
2023/04/16 11:22:15;;;;;;;25.33;12.85;;;;;;;;;;7383086;19;20357;-76
2023/04/16 11:24:41;;;;;;;22.45;11.70;;;;;;;;;;7379236;19;20510;-77
2023/04/16 11:27:07;;;;;;;21.73;12.27;;;;;;;;;;7384456;19;20132;-68
2023/04/16 11:29:32;;;;;;;23.27;11.90;;;;;;;;;;7384051;19;20018;-68
2023/04/16 11:31:58;;;;;;;23.10;11.85;;;;;;;;;;7385314;19;20007;-75
2023/04/16 11:34:24;;;;;;;23.08;12.73;;;;;;;;;;7385579;19;19999;-74
2023/04/16 11:36:50;;;;;;;28.65;13.35;;;;;;;;;;7384782;19;20006;-75
2023/04/16 11:39:16;;;;;;;25.52;12.40;;;;;;;;;;7383727;19;20067;-73
2023/04/16 11:41:48;;;;;;;23.40;11.77;;;;;;;;;;7386465;19;20436;-81
2023/04/16 11:44:17;;;;;;;22.58;11.40;;;;;;;;;;7396456;19;20058;-73
2023/04/16 11:46:43;;;;;;;22.35;13.00;;;;;;;;;;7384544;19;19999;-67
2023/04/16 11:49:08;;;;;;;20.80;11.65;;;;;;;;;;7379512;19;20010;-72
2023/04/16 11:51:44;;;;;;;23.30;12.13;;;;;;;;;;7380461;19;20030;-67
2023/04/16 11:54:18;;;;;;;23.48;12.65;;;;;;;;;;7383401;19;20467;-65
2023/04/16 11:56:48;;;;;;;23.10;12.18;;;;;;;;;;7385384;19;20380;-68
2023/04/16 11:59:15;;;;;;;22.85;11.88;;;;;;;;;;7384654;19;20061;-64
2023/04/16 12:01:49;;;;;;;22.67;11.50;;;;;;;;;;7385797;19;20017;-65
2023/04/16 12:04:16;;;;;;;24.10;12.73;;;;;;;;;;7390163;19;20013;-65
2023/04/16 12:07:03;;;;;;;22.58;13.15;;;;;;;;;;7389605;19;20002;-64
2023/04/16 12:09:28;;;;;;;19.55;11.80;;;;;;;;;;7392947;19;19994;-65
2023/04/16 12:11:54;;;;;;;19.70;11.60;;;;;;;;;;7390672;19;20070;-64
2023/04/16 12:14:19;;;;;;;22.63;11.38;;;;;;;;;;7388895;19;19999;-64
2023/04/16 12:16:44;;;;;;;22.48;12.35;;;;;;;;;;7389826;19;20003;-65
2023/04/16 12:19:11;;;;;;;20.90;11.38;;;;;;;;;;7388465;19;20007;-67
2023/04/16 12:21:45;;;;;;;19.23;11.70;;;;;;;;;;7386177;19;19999;-70
2023/04/16 12:24:12;;;;;;;21.45;11.77;;;;;;;;;;7389684;19;20426;-70
2023/04/16 12:26:54;;;;;;;21.98;11.85;;;;;;;;;;7385200;19;20013;-69
2023/04/16 12:29:26;;;;;;;18.58;11.90;;;;;;;;;;7389306;19;20006;-73
2023/04/16 12:31:53;;;;;;;19.25;11.40;;;;;;;;;;7387534;19;20026;-71
2023/04/16 12:34:19;;;;;;;19.05;11.48;;;;;;;;;;7389306;19;20704;-72
2023/04/16 12:36:46;;;;;;;19.70;12.15;;;;;;;;;;7388874;19;19994;-70
2023/04/16 12:39:13;;;;;;;21.52;12.25;;;;;;;;;;7389296;19;20002;-70
2023/04/16 12:41:41;;;;;;;19.88;11.80;;;;;;;;;;7389251;19;20002;-70
2023/04/16 12:44:11;;;;;;;16.67;10.68;;;;;;;;;;7389256;19;20006;-71
2023/04/16 12:46:40;;;;;;;20.20;10.75;;;;;;;;;;7387231;19;20002;-70
2023/04/16 12:49:07;;;;;;;17.30;9.48;;;;;;;;;;7385421;19;20078;-70
2023/04/16 12:51:33;;;;;;;20.23;10.88;;;;;;;;;;7389148;19;20006;-70
2023/04/16 12:54:00;;;;;;;19.23;11.50;;;;;;;;;;7387835;19;20014;-70
2023/04/16 12:56:26;;;;;;;20.73;10.88;;;;;;;;;;7387757;19;20002;-71
2023/04/16 12:58:51;;;;;;;17.98;10.85;;;;;;;;;;7383965;19;20018;-70
2023/04/16 13:01:20;;;;;;;19.50;11.35;;;;;;;;;;7386981;19;20047;-70
2023/04/16 13:03:46;;;;;;;16.92;10.40;;;;;;;;;;7387742;19;20095;-70
2023/04/16 13:06:12;;;;;;;20.77;11.65;;;;;;;;;;7384026;19;20010;-70
2023/04/16 13:08:38;;;;;;;19.80;10.55;;;;;;;;;;7388569;19;20006;-70
2023/04/16 13:11:03;;;;;;;21.67;10.60;;;;;;;;;;7387893;19;20002;-71
2023/04/16 13:13:29;;;;;;;17.77;10.45;;;;;;;;;;7387775;19;20063;-70
2023/04/16 13:15:55;;;;;;;17.52;10.00;;;;;;;;;;7387136;19;20120;-70
2023/04/16 13:18:20;;;;;;;19.40;10.70;;;;;;;;;;7384345;19;20058;-70
2023/04/16 13:20:45;;;;;;;16.73;9.38;;;;;;;;;;7386982;19;20010;-70
2023/04/16 13:23:11;;;;;;;16.83;9.65;;;;;;;;;;7388739;19;20019;-71
2023/04/16 13:25:36;;;;;;;15.45;9.63;;;;;;;;;;7384868;19;20297;-72
2023/04/16 13:28:01;;;;;;;16.80;10.02;;;;;;;;;;7389189;19;20325;-71
2023/04/16 13:30:28;;;;;;;14.45;8.80;;;;;;;;;;7387059;19;20002;-70
2023/04/16 13:32:54;;;;;;;14.75;9.30;;;;;;;;;;7389620;19;20455;-71
2023/04/16 13:35:20;;;;;;;15.32;9.00;;;;;;;;;;7384959;19;20033;-71
2023/04/16 13:37:45;;;;;;;15.75;9.02;;;;;;;;;;7389878;19;20002;-71
2023/04/16 13:40:10;;;;;;;14.13;7.93;;;;;;;;;;7382472;19;20026;-63
2023/04/16 13:42:36;;;;;;;17.25;8.52;;;;;;;;;;7389373;19;20006;-73
2023/04/16 13:45:01;;;;;;;16.70;9.32;;;;;;;;;;7391394;19;20014;-70
2023/04/16 13:47:27;;;;;;;16.38;9.63;;;;;;;;;;7387099;19;20349;-70
2023/04/16 13:49:52;;;;;;;15.57;8.45;;;;;;;;;;7387347;19;20079;-71
2023/04/16 13:52:18;;;;;;;13.90;8.82;;;;;;;;;;7383411;19;20002;-70
2023/04/16 13:54:43;;;;;;;13.90;8.95;;;;;;;;;;7388570;19;20042;-71
2023/04/16 13:57:08;;;;;;;14.02;8.48;;;;;;;;;;7383624;19;20041;-70
2023/04/16 13:59:34;;;;;;;15.70;8.25;;;;;;;;;;7387329;19;20010;-71
2023/04/16 14:01:59;;;;;;;14.88;7.82;;;;;;;;;;7382692;19;20011;-70
2023/04/16 14:04:24;;;;;;;12.93;6.68;;;;;;;;;;7387977;19;20497;-72
2023/04/16 14:06:50;;;;;;;12.73;7.63;;;;;;;;;;7387025;19;19998;-72
2023/04/16 14:09:15;;;;;;;12.82;8.18;;;;;;;;;;7387617;19;20026;-71
2023/04/16 14:11:40;;;;;;;14.20;8.30;;;;;;;;;;7387920;19;20003;-72
2023/04/16 14:14:06;;;;;;;12.45;8.20;;;;;;;;;;7381757;19;20465;-75
2023/04/16 14:16:32;;;;;;;14.48;8.23;;;;;;;;;;7388413;19;20070;-73
2023/04/16 14:18:57;;;;;;;12.20;7.43;;;;;;;;;;7385959;19;20419;-73
2023/04/16 14:21:22;;;;;;;11.73;7.53;;;;;;;;;;7383955;19;20026;-74
2023/04/16 14:23:48;;;;;;;13.23;7.32;;;;;;;;;;7382346;19;20013;-74